CYNL

METAR CYNL 182000Z AUTO ///// 9SM CLR M27/M35 A3005 RMK AO1 SLP293
METAR
LOCATION
CYNL
DATE - TIME
182000Z
WIND
VISIBILITY
9SM
RUNWAY VISUAL RANGE
NOT REPORTED
WEATHER
CLOUDINESS
CLR
TEMP / DEWPOINT
-27 ºC / -35 ºC
ALTIMETER
30.05 in. Hg
RECENT WEATHER
NOT REPORTED
WIND SHEAR
NOT REPORTED
REMARKS
RMK AO1 SLP293
SEA LEVEL PRESSURE: hPa

CYNL

METAR CYNL 181900Z AUTO 29004KT 9SM CLR M29/M35 A3005 RMK AO1 SLP292
METAR
LOCATION
CYNL
DATE - TIME
181900Z
WIND
290 TRUE @ 4 KNOTS
VISIBILITY
9SM
RUNWAY VISUAL RANGE
NOT REPORTED
WEATHER
CLOUDINESS
CLR
TEMP / DEWPOINT
-29 ºC / -35 ºC
ALTIMETER
30.05 in. Hg
RECENT WEATHER
NOT REPORTED
WIND SHEAR
NOT REPORTED
REMARKS
RMK AO1 SLP292
SEA LEVEL PRESSURE: hPa

CYNL

METAR CYNL 181800Z AUTO ///// 9SM CLR M30/M36 A3004 RMK AO1 SLP291
METAR
LOCATION
CYNL
DATE - TIME
181800Z
WIND
VISIBILITY
9SM
RUNWAY VISUAL RANGE
NOT REPORTED
WEATHER
CLOUDINESS
CLR
TEMP / DEWPOINT
-30 ºC / -36 ºC
ALTIMETER
30.04 in. Hg
RECENT WEATHER
NOT REPORTED
WIND SHEAR
NOT REPORTED
REMARKS
RMK AO1 SLP291
SEA LEVEL PRESSURE: hPa

Your time UTC time
 
 
Weather data provided by AXYS Technologies Inc., www.axystechnologies.com
 
Station History